sensor_id;sensor_type;location;lat;lon;timestamp;P1;durP1;ratioP1;P2;durP2;ratioP2
74715;SDS011;63234;37.558;127.058;2023-07-28T00:01:28;4.30;;;2.53;;
74715;SDS011;63234;37.558;127.058;2023-07-28T00:03:54;6.45;;;2.40;;
74715;SDS011;63234;37.558;127.058;2023-07-28T00:06:20;5.70;;;2.30;;
74715;SDS011;63234;37.558;127.058;2023-07-28T00:08:46;6.20;;;2.63;;
74715;SDS011;63234;37.558;127.058;2023-07-28T00:11:12;4.30;;;2.45;;
74715;SDS011;63234;37.558;127.058;2023-07-28T00:13:40;3.90;;;2.45;;
74715;SDS011;63234;37.558;127.058;2023-07-28T00:16:07;4.50;;;2.58;;
74715;SDS011;63234;37.558;127.058;2023-07-28T00:18:33;4.10;;;2.50;;
74715;SDS011;63234;37.558;127.058;2023-07-28T00:21:00;3.17;;;2.28;;
74715;SDS011;63234;37.558;127.058;2023-07-28T00:23:26;4.53;;;2.05;;
74715;SDS011;63234;37.558;127.058;2023-07-28T00:25:52;4.75;;;2.53;;
74715;SDS011;63234;37.558;127.058;2023-07-28T00:28:18;3.90;;;2.60;;
74715;SDS011;63234;37.558;127.058;2023-07-28T00:30:44;5.97;;;2.63;;
74715;SDS011;63234;37.558;127.058;2023-07-28T00:33:09;4.32;;;2.40;;
74715;SDS011;63234;37.558;127.058;2023-07-28T00:35:35;3.38;;;2.10;;
74715;SDS011;63234;37.558;127.058;2023-07-28T00:38:01;5.60;;;2.50;;
74715;SDS011;63234;37.558;127.058;2023-07-28T00:40:27;4.97;;;3.00;;
74715;SDS011;63234;37.558;127.058;2023-07-28T00:42:53;3.22;;;2.45;;
74715;SDS011;63234;37.558;127.058;2023-07-28T00:45:18;5.80;;;2.80;;
74715;SDS011;63234;37.558;127.058;2023-07-28T00:47:45;3.05;;;2.08;;
74715;SDS011;63234;37.558;127.058;2023-07-28T00:50:11;4.88;;;2.88;;
74715;SDS011;63234;37.558;127.058;2023-07-28T00:52:37;4.72;;;2.42;;
74715;SDS011;63234;37.558;127.058;2023-07-28T00:55:06;4.47;;;2.42;;
74715;SDS011;63234;37.558;127.058;2023-07-28T00:57:33;5.78;;;2.20;;
74715;SDS011;63234;37.558;127.058;2023-07-28T00:59:59;3.03;;;1.85;;
74715;SDS011;63234;37.558;127.058;2023-07-28T01:02:25;5.97;;;2.38;;
74715;SDS011;63234;37.558;127.058;2023-07-28T01:04:51;4.03;;;2.30;;
74715;SDS011;63234;37.558;127.058;2023-07-28T01:07:38;3.72;;;2.42;;
74715;SDS011;63234;37.558;127.058;2023-07-28T01:10:16;4.68;;;2.30;;
74715;SDS011;63234;37.558;127.058;2023-07-28T01:12:47;4.18;;;2.30;;
74715;SDS011;63234;37.558;127.058;2023-07-28T01:15:13;6.70;;;2.67;;
74715;SDS011;63234;37.558;127.058;2023-07-28T01:17:40;3.03;;;2.17;;
74715;SDS011;63234;37.558;127.058;2023-07-28T01:20:07;4.53;;;2.38;;
74715;SDS011;63234;37.558;127.058;2023-07-28T01:26:11;4.15;;;2.58;;
74715;SDS011;63234;37.558;127.058;2023-07-28T01:28:23;4.00;;;2.58;;
74715;SDS011;63234;37.558;127.058;2023-07-28T01:30:49;3.58;;;2.63;;
74715;SDS011;63234;37.558;127.058;2023-07-28T01:33:15;3.40;;;2.35;;
74715;SDS011;63234;37.558;127.058;2023-07-28T01:35:41;3.97;;;2.30;;
74715;SDS011;63234;37.558;127.058;2023-07-28T01:38:07;3.58;;;2.35;;
74715;SDS011;63234;37.558;127.058;2023-07-28T01:40:33;4.13;;;2.50;;
74715;SDS011;63234;37.558;127.058;2023-07-28T01:42:59;3.78;;;2.30;;
74715;SDS011;63234;37.558;127.058;2023-07-28T01:45:25;5.70;;;2.40;;
74715;SDS011;63234;37.558;127.058;2023-07-28T01:47:50;3.50;;;2.17;;
74715;SDS011;63234;37.558;127.058;2023-07-28T01:50:16;3.55;;;2.53;;
74715;SDS011;63234;37.558;127.058;2023-07-28T01:52:42;5.70;;;2.83;;
74715;SDS011;63234;37.558;127.058;2023-07-28T01:55:08;4.50;;;2.28;;
74715;SDS011;63234;37.558;127.058;2023-07-28T01:57:34;3.10;;;2.17;;
74715;SDS011;63234;37.558;127.058;2023-07-28T02:00:00;3.17;;;2.17;;
74715;SDS011;63234;37.558;127.058;2023-07-28T02:02:28;5.43;;;2.28;;
74715;SDS011;63234;37.558;127.058;2023-07-28T02:04:54;5.47;;;2.45;;
74715;SDS011;63234;37.558;127.058;2023-07-28T02:07:20;3.47;;;2.53;;
74715;SDS011;63234;37.558;127.058;2023-07-28T02:09:46;4.13;;;2.58;;
74715;SDS011;63234;37.558;127.058;2023-07-28T02:12:11;6.43;;;2.63;;
74715;SDS011;63234;37.558;127.058;2023-07-28T02:14:37;4.32;;;2.15;;
74715;SDS011;63234;37.558;127.058;2023-07-28T02:17:03;3.33;;;2.17;;
74715;SDS011;63234;37.558;127.058;2023-07-28T02:19:29;3.17;;;1.98;;
74715;SDS011;63234;37.558;127.058;2023-07-28T02:21:55;4.38;;;2.10;;
74715;SDS011;63234;37.558;127.058;2023-07-28T02:24:20;2.85;;;2.10;;
74715;SDS011;63234;37.558;127.058;2023-07-28T02:26:46;2.45;;;2.08;;
74715;SDS011;63234;37.558;127.058;2023-07-28T02:29:12;4.05;;;2.40;;
74715;SDS011;63234;37.558;127.058;2023-07-28T02:31:38;3.55;;;2.15;;
74715;SDS011;63234;37.558;127.058;2023-07-28T02:34:03;2.78;;;1.88;;
74715;SDS011;63234;37.558;127.058;2023-07-28T02:36:30;3.53;;;2.20;;
74715;SDS011;63234;37.558;127.058;2023-07-28T02:38:56;3.90;;;2.25;;
74715;SDS011;63234;37.558;127.058;2023-07-28T02:41:22;3.60;;;2.40;;
74715;SDS011;63234;37.558;127.058;2023-07-28T02:43:48;3.80;;;2.42;;
74715;SDS011;63234;37.558;127.058;2023-07-28T02:46:14;3.30;;;2.15;;
74715;SDS011;63234;37.558;127.058;2023-07-28T02:48:40;3.10;;;1.95;;
74715;SDS011;63234;37.558;127.058;2023-07-28T02:51:05;4.35;;;2.47;;
74715;SDS011;63234;37.558;127.058;2023-07-28T02:53:31;3.60;;;2.10;;
74715;SDS011;63234;37.558;127.058;2023-07-28T02:55:57;3.95;;;2.35;;
74715;SDS011;63234;37.558;127.058;2023-07-28T02:58:23;5.32;;;2.33;;
74715;SDS011;63234;37.558;127.058;2023-07-28T03:00:51;4.20;;;2.15;;
74715;SDS011;63234;37.558;127.058;2023-07-28T03:03:17;2.75;;;2.38;;
74715;SDS011;63234;37.558;127.058;2023-07-28T03:05:43;2.75;;;2.08;;
74715;SDS011;63234;37.558;127.058;2023-07-28T03:08:09;3.50;;;2.25;;
74715;SDS011;63234;37.558;127.058;2023-07-28T03:10:35;3.95;;;2.25;;
74715;SDS011;63234;37.558;127.058;2023-07-28T03:13:00;3.60;;;2.30;;
74715;SDS011;63234;37.558;127.058;2023-07-28T03:15:26;2.65;;;1.98;;
74715;SDS011;63234;37.558;127.058;2023-07-28T03:17:52;4.00;;;2.58;;
74715;SDS011;63234;37.558;127.058;2023-07-28T03:20:20;4.95;;;2.70;;
74715;SDS011;63234;37.558;127.058;2023-07-28T03:22:46;6.10;;;2.53;;
74715;SDS011;63234;37.558;127.058;2023-07-28T03:25:12;5.65;;;2.58;;
74715;SDS011;63234;37.558;127.058;2023-07-28T03:27:38;3.47;;;2.05;;
74715;SDS011;63234;37.558;127.058;2023-07-28T03:30:03;4.00;;;2.53;;
74715;SDS011;63234;37.558;127.058;2023-07-28T03:32:32;3.35;;;2.33;;
74715;SDS011;63234;37.558;127.058;2023-07-28T03:34:58;3.50;;;2.20;;
74715;SDS011;63234;37.558;127.058;2023-07-28T03:37:24;3.67;;;2.30;;
74715;SDS011;63234;37.558;127.058;2023-07-28T03:39:49;6.60;;;2.40;;
74715;SDS011;63234;37.558;127.058;2023-07-28T03:42:15;4.32;;;2.20;;
74715;SDS011;63234;37.558;127.058;2023-07-28T03:44:41;2.88;;;2.22;;
74715;SDS011;63234;37.558;127.058;2023-07-28T03:47:07;3.10;;;2.25;;
74715;SDS011;63234;37.558;127.058;2023-07-28T03:49:33;2.80;;;2.20;;
74715;SDS011;63234;37.558;127.058;2023-07-28T03:51:59;3.38;;;2.33;;
74715;SDS011;63234;37.558;127.058;2023-07-28T03:54:25;2.85;;;2.08;;
74715;SDS011;63234;37.558;127.058;2023-07-28T03:56:51;2.85;;;2.20;;
74715;SDS011;63234;37.558;127.058;2023-07-28T03:59:17;3.88;;;2.30;;
74715;SDS011;63234;37.558;127.058;2023-07-28T04:01:42;5.30;;;2.13;;
74715;SDS011;63234;37.558;127.058;2023-07-28T04:04:08;4.65;;;2.40;;
74715;SDS011;63234;37.558;127.058;2023-07-28T04:06:44;3.15;;;2.13;;
74715;SDS011;63234;37.558;127.058;2023-07-28T04:09:13;3.53;;;2.40;;
74715;SDS011;63234;37.558;127.058;2023-07-28T04:11:40;3.05;;;2.10;;
74715;SDS011;63234;37.558;127.058;2023-07-28T04:14:06;4.28;;;2.42;;
74715;SDS011;63234;37.558;127.058;2023-07-28T04:16:32;3.97;;;2.47;;
74715;SDS011;63234;37.558;127.058;2023-07-28T04:18:59;3.67;;;2.40;;
74715;SDS011;63234;37.558;127.058;2023-07-28T04:21:25;3.42;;;2.38;;
74715;SDS011;63234;37.558;127.058;2023-07-28T04:26:35;4.10;;;2.25;;
74715;SDS011;63234;37.558;127.058;2023-07-28T04:29:01;3.70;;;2.45;;
74715;SDS011;63234;37.558;127.058;2023-07-28T04:31:27;5.22;;;2.17;;
74715;SDS011;63234;37.558;127.058;2023-07-28T04:33:53;3.83;;;2.40;;
74715;SDS011;63234;37.558;127.058;2023-07-28T04:36:19;6.25;;;2.67;;
74715;SDS011;63234;37.558;127.058;2023-07-28T04:38:45;6.32;;;2.47;;
74715;SDS011;63234;37.558;127.058;2023-07-28T04:41:10;4.55;;;2.60;;
74715;SDS011;63234;37.558;127.058;2023-07-28T04:43:36;5.75;;;2.33;;
74715;SDS011;63234;37.558;127.058;2023-07-28T04:46:02;4.30;;;2.30;;
74715;SDS011;63234;37.558;127.058;2023-07-28T04:48:28;3.03;;;2.30;;
74715;SDS011;63234;37.558;127.058;2023-07-28T04:50:54;3.90;;;2.42;;
74715;SDS011;63234;37.558;127.058;2023-07-28T04:53:20;3.78;;;2.80;;
74715;SDS011;63234;37.558;127.058;2023-07-28T04:55:46;4.07;;;2.33;;
74715;SDS011;63234;37.558;127.058;2023-07-28T04:58:12;3.65;;;2.53;;
74715;SDS011;63234;37.558;127.058;2023-07-28T05:00:38;3.90;;;2.67;;
74715;SDS011;63234;37.558;127.058;2023-07-28T05:03:04;5.38;;;2.55;;
74715;SDS011;63234;37.558;127.058;2023-07-28T05:05:29;4.22;;;2.58;;
74715;SDS011;63234;37.558;127.058;2023-07-28T05:07:55;4.88;;;2.80;;
74715;SDS011;63234;37.558;127.058;2023-07-28T05:10:21;4.15;;;2.40;;
74715;SDS011;63234;37.558;127.058;2023-07-28T05:12:47;5.93;;;2.78;;
74715;SDS011;63234;37.558;127.058;2023-07-28T05:15:14;4.28;;;2.67;;
74715;SDS011;63234;37.558;127.058;2023-07-28T05:17:41;5.65;;;2.97;;
74715;SDS011;63234;37.558;127.058;2023-07-28T05:20:07;5.65;;;2.88;;
74715;SDS011;63234;37.558;127.058;2023-07-28T05:22:33;10.00;;;3.83;;
74715;SDS011;63234;37.558;127.058;2023-07-28T05:24:59;4.88;;;2.63;;
74715;SDS011;63234;37.558;127.058;2023-07-28T05:27:25;3.30;;;2.30;;
74715;SDS011;63234;37.558;127.058;2023-07-28T05:29:51;5.38;;;3.03;;
74715;SDS011;63234;37.558;127.058;2023-07-28T05:32:16;4.93;;;2.72;;
74715;SDS011;63234;37.558;127.058;2023-07-28T05:34:42;5.25;;;2.88;;
74715;SDS011;63234;37.558;127.058;2023-07-28T05:37:09;9.18;;;3.08;;
74715;SDS011;63234;37.558;127.058;2023-07-28T05:39:36;5.90;;;2.70;;
74715;SDS011;63234;37.558;127.058;2023-07-28T05:42:02;5.15;;;3.20;;
74715;SDS011;63234;37.558;127.058;2023-07-28T05:44:28;8.10;;;3.00;;
74715;SDS011;63234;37.558;127.058;2023-07-28T05:46:54;6.22;;;3.22;;
74715;SDS011;63234;37.558;127.058;2023-07-28T05:49:20;4.90;;;3.03;;
74715;SDS011;63234;37.558;127.058;2023-07-28T05:51:45;4.55;;;2.92;;
74715;SDS011;63234;37.558;127.058;2023-07-28T05:54:12;4.57;;;3.00;;
74715;SDS011;63234;37.558;127.058;2023-07-28T05:56:41;3.80;;;2.80;;
74715;SDS011;63234;37.558;127.058;2023-07-28T05:59:07;6.93;;;3.13;;
74715;SDS011;63234;37.558;127.058;2023-07-28T06:01:33;6.45;;;3.13;;
74715;SDS011;63234;37.558;127.058;2023-07-28T06:03:59;4.15;;;3.00;;
74715;SDS011;63234;37.558;127.058;2023-07-28T06:06:25;5.10;;;3.22;;
74715;SDS011;63234;37.558;127.058;2023-07-28T06:08:52;5.55;;;3.20;;
74715;SDS011;63234;37.558;127.058;2023-07-28T06:11:19;5.70;;;3.22;;
74715;SDS011;63234;37.558;127.058;2023-07-28T06:13:45;6.10;;;2.70;;
74715;SDS011;63234;37.558;127.058;2023-07-28T06:16:12;4.65;;;2.97;;
74715;SDS011;63234;37.558;127.058;2023-07-28T06:18:38;5.38;;;2.90;;
74715;SDS011;63234;37.558;127.058;2023-07-28T06:21:04;5.07;;;3.08;;
74715;SDS011;63234;37.558;127.058;2023-07-28T06:23:30;4.22;;;2.83;;
74715;SDS011;63234;37.558;127.058;2023-07-28T06:25:56;5.70;;;2.70;;
74715;SDS011;63234;37.558;127.058;2023-07-28T06:28:22;6.40;;;3.00;;
74715;SDS011;63234;37.558;127.058;2023-07-28T06:30:53;5.00;;;3.15;;
74715;SDS011;63234;37.558;127.058;2023-07-28T06:33:22;4.95;;;3.30;;
74715;SDS011;63234;37.558;127.058;2023-07-28T06:35:49;7.25;;;3.08;;
74715;SDS011;63234;37.558;127.058;2023-07-28T06:38:15;6.45;;;3.60;;
74715;SDS011;63234;37.558;127.058;2023-07-28T06:40:41;7.90;;;3.60;;
74715;SDS011;63234;37.558;127.058;2023-07-28T06:43:07;8.25;;;3.40;;
74715;SDS011;63234;37.558;127.058;2023-07-28T06:45:33;7.18;;;3.55;;
74715;SDS011;63234;37.558;127.058;2023-07-28T06:47:59;7.05;;;3.25;;
74715;SDS011;63234;37.558;127.058;2023-07-28T06:50:25;5.28;;;3.78;;
74715;SDS011;63234;37.558;127.058;2023-07-28T06:52:51;8.27;;;3.92;;
74715;SDS011;63234;37.558;127.058;2023-07-28T06:55:17;7.93;;;3.45;;
74715;SDS011;63234;37.558;127.058;2023-07-28T06:57:44;6.30;;;3.63;;
74715;SDS011;63234;37.558;127.058;2023-07-28T07:00:10;9.82;;;3.65;;
74715;SDS011;63234;37.558;127.058;2023-07-28T07:02:36;12.00;;;3.60;;
74715;SDS011;63234;37.558;127.058;2023-07-28T07:05:03;11.82;;;3.70;;
74715;SDS011;63234;37.558;127.058;2023-07-28T07:07:29;10.05;;;3.75;;
74715;SDS011;63234;37.558;127.058;2023-07-28T07:09:55;10.38;;;4.30;;
74715;SDS011;63234;37.558;127.058;2023-07-28T07:12:21;10.10;;;4.22;;
74715;SDS011;63234;37.558;127.058;2023-07-28T07:14:47;7.60;;;4.35;;
74715;SDS011;63234;37.558;127.058;2023-07-28T07:17:13;11.90;;;3.97;;
74715;SDS011;63234;37.558;127.058;2023-07-28T07:19:39;5.25;;;3.40;;
74715;SDS011;63234;37.558;127.058;2023-07-28T07:22:05;8.73;;;3.35;;
74715;SDS011;63234;37.558;127.058;2023-07-28T07:24:31;4.05;;;2.42;;
74715;SDS011;63234;37.558;127.058;2023-07-28T07:26:57;5.70;;;2.75;;
74715;SDS011;63234;37.558;127.058;2023-07-28T07:29:24;7.20;;;2.88;;
74715;SDS011;63234;37.558;127.058;2023-07-28T07:31:49;6.50;;;2.65;;
74715;SDS011;63234;37.558;127.058;2023-07-28T07:34:20;5.32;;;2.60;;
74715;SDS011;63234;37.558;127.058;2023-07-28T07:36:47;4.60;;;2.95;;
74715;SDS011;63234;37.558;127.058;2023-07-28T07:39:13;3.35;;;2.58;;
74715;SDS011;63234;37.558;127.058;2023-07-28T07:41:39;4.32;;;2.80;;
74715;SDS011;63234;37.558;127.058;2023-07-28T07:44:04;5.55;;;2.78;;
74715;SDS011;63234;37.558;127.058;2023-07-28T07:46:30;7.00;;;2.50;;
74715;SDS011;63234;37.558;127.058;2023-07-28T07:48:56;4.10;;;2.53;;
74715;SDS011;63234;37.558;127.058;2023-07-28T07:51:22;4.70;;;2.67;;
74715;SDS011;63234;37.558;127.058;2023-07-28T07:53:48;3.90;;;2.30;;
74715;SDS011;63234;37.558;127.058;2023-07-28T07:56:14;5.18;;;2.10;;
74715;SDS011;63234;37.558;127.058;2023-07-28T07:58:40;3.75;;;2.50;;
74715;SDS011;63234;37.558;127.058;2023-07-28T08:01:06;4.90;;;2.47;;
74715;SDS011;63234;37.558;127.058;2023-07-28T08:03:31;3.80;;;2.38;;
74715;SDS011;63234;37.558;127.058;2023-07-28T08:05:57;4.03;;;2.60;;
74715;SDS011;63234;37.558;127.058;2023-07-28T08:08:23;5.40;;;2.88;;
74715;SDS011;63234;37.558;127.058;2023-07-28T08:10:49;3.58;;;2.30;;
74715;SDS011;63234;37.558;127.058;2023-07-28T08:13:16;8.38;;;2.45;;
74715;SDS011;63234;37.558;127.058;2023-07-28T08:15:45;4.43;;;2.45;;
74715;SDS011;63234;37.558;127.058;2023-07-28T08:18:14;4.50;;;2.45;;
74715;SDS011;63234;37.558;127.058;2023-07-28T08:20:40;3.92;;;2.60;;
74715;SDS011;63234;37.558;127.058;2023-07-28T08:23:06;4.47;;;2.50;;
74715;SDS011;63234;37.558;127.058;2023-07-28T08:25:33;5.78;;;2.88;;
74715;SDS011;63234;37.558;127.058;2023-07-28T08:27:59;6.13;;;2.35;;
74715;SDS011;63234;37.558;127.058;2023-07-28T08:30:25;5.22;;;2.55;;
74715;SDS011;63234;37.558;127.058;2023-07-28T08:32:51;6.85;;;3.20;;
74715;SDS011;63234;37.558;127.058;2023-07-28T08:35:17;8.00;;;2.88;;
74715;SDS011;63234;37.558;127.058;2023-07-28T08:37:43;9.30;;;2.88;;
74715;SDS011;63234;37.558;127.058;2023-07-28T08:40:09;6.32;;;2.97;;
74715;SDS011;63234;37.558;127.058;2023-07-28T08:42:37;4.97;;;3.00;;
74715;SDS011;63234;37.558;127.058;2023-07-28T08:45:04;4.28;;;2.65;;
74715;SDS011;63234;37.558;127.058;2023-07-28T08:47:33;6.28;;;3.20;;
74715;SDS011;63234;37.558;127.058;2023-07-28T08:50:00;5.53;;;3.00;;
74715;SDS011;63234;37.558;127.058;2023-07-28T08:52:26;5.88;;;2.67;;
74715;SDS011;63234;37.558;127.058;2023-07-28T08:54:52;4.88;;;2.85;;
74715;SDS011;63234;37.558;127.058;2023-07-28T08:57:19;4.53;;;2.63;;
74715;SDS011;63234;37.558;127.058;2023-07-28T08:59:46;4.57;;;2.72;;
74715;SDS011;63234;37.558;127.058;2023-07-28T09:02:18;5.13;;;2.70;;
74715;SDS011;63234;37.558;127.058;2023-07-28T09:04:45;5.38;;;3.08;;
74715;SDS011;63234;37.558;127.058;2023-07-28T09:07:12;4.47;;;2.70;;
74715;SDS011;63234;37.558;127.058;2023-07-28T09:09:39;6.20;;;2.63;;
74715;SDS011;63234;37.558;127.058;2023-07-28T09:12:08;5.63;;;2.50;;
74715;SDS011;63234;37.558;127.058;2023-07-28T09:14:37;7.10;;;2.58;;
74715;SDS011;63234;37.558;127.058;2023-07-28T09:17:11;5.45;;;2.63;;
74715;SDS011;63234;37.558;127.058;2023-07-28T09:19:55;4.57;;;2.80;;
74715;SDS011;63234;37.558;127.058;2023-07-28T09:22:22;4.95;;;2.90;;
74715;SDS011;63234;37.558;127.058;2023-07-28T09:24:49;4.13;;;2.53;;
74715;SDS011;63234;37.558;127.058;2023-07-28T09:27:23;7.35;;;2.70;;
74715;SDS011;63234;37.558;127.058;2023-07-28T09:29:51;4.15;;;2.35;;
74715;SDS011;63234;37.558;127.058;2023-07-28T09:32:27;6.47;;;2.70;;
74715;SDS011;63234;37.558;127.058;2023-07-28T09:35:16;5.05;;;2.13;;
74715;SDS011;63234;37.558;127.058;2023-07-28T09:37:44;5.32;;;2.40;;
74715;SDS011;63234;37.558;127.058;2023-07-28T09:40:13;6.30;;;2.53;;
74715;SDS011;63234;37.558;127.058;2023-07-28T09:45:06;5.88;;;2.70;;
74715;SDS011;63234;37.558;127.058;2023-07-28T09:47:37;6.10;;;2.45;;
74715;SDS011;63234;37.558;127.058;2023-07-28T09:50:07;5.45;;;2.80;;
74715;SDS011;63234;37.558;127.058;2023-07-28T09:52:39;6.20;;;2.75;;
74715;SDS011;63234;37.558;127.058;2023-07-28T09:55:09;4.37;;;2.67;;
74715;SDS011;63234;37.558;127.058;2023-07-28T09:57:45;5.55;;;2.22;;
74715;SDS011;63234;37.558;127.058;2023-07-28T10:00:19;4.80;;;1.90;;
74715;SDS011;63234;37.558;127.058;2023-07-28T10:02:47;4.45;;;2.60;;
74715;SDS011;63234;37.558;127.058;2023-07-28T10:05:14;4.53;;;2.88;;
74715;SDS011;63234;37.558;127.058;2023-07-28T10:07:42;6.30;;;2.97;;
74715;SDS011;63234;37.558;127.058;2023-07-28T10:10:10;6.60;;;3.25;;
74715;SDS011;63234;37.558;127.058;2023-07-28T10:12:48;4.60;;;2.78;;
74715;SDS011;63234;37.558;127.058;2023-07-28T10:15:19;4.07;;;2.65;;
74715;SDS011;63234;37.558;127.058;2023-07-28T10:17:53;8.85;;;3.30;;
74715;SDS011;63234;37.558;127.058;2023-07-28T10:20:33;5.15;;;3.13;;
74715;SDS011;63234;37.558;127.058;2023-07-28T10:23:14;3.90;;;2.75;;
74715;SDS011;63234;37.558;127.058;2023-07-28T10:28:24;5.18;;;2.65;;
74715;SDS011;63234;37.558;127.058;2023-07-28T10:31:09;3.28;;;1.98;;
74715;SDS011;63234;37.558;127.058;2023-07-28T10:33:38;4.13;;;2.88;;
74715;SDS011;63234;37.558;127.058;2023-07-28T10:36:11;4.53;;;3.20;;
74715;SDS011;63234;37.558;127.058;2023-07-28T10:41:30;7.25;;;3.13;;
74715;SDS011;63234;37.558;127.058;2023-07-28T10:43:56;6.07;;;2.75;;
74715;SDS011;63234;37.558;127.058;2023-07-28T10:46:22;3.92;;;2.50;;
74715;SDS011;63234;37.558;127.058;2023-07-28T10:49:25;4.30;;;2.60;;
74715;SDS011;63234;37.558;127.058;2023-07-28T10:51:51;5.53;;;2.88;;
74715;SDS011;63234;37.558;127.058;2023-07-28T10:54:17;7.28;;;4.07;;
74715;SDS011;63234;37.558;127.058;2023-07-28T10:56:48;5.38;;;3.08;;
74715;SDS011;63234;37.558;127.058;2023-07-28T10:59:14;4.80;;;2.70;;
74715;SDS011;63234;37.558;127.058;2023-07-28T11:01:40;6.70;;;3.03;;
74715;SDS011;63234;37.558;127.058;2023-07-28T11:04:17;4.82;;;2.85;;
74715;SDS011;63234;37.558;127.058;2023-07-28T11:06:45;5.80;;;2.88;;
74715;SDS011;63234;37.558;127.058;2023-07-28T11:09:13;8.13;;;3.75;;
74715;SDS011;63234;37.558;127.058;2023-07-28T11:11:40;5.82;;;2.85;;
74715;SDS011;63234;37.558;127.058;2023-07-28T11:14:07;5.30;;;3.08;;
74715;SDS011;63234;37.558;127.058;2023-07-28T11:16:37;5.95;;;2.92;;
74715;SDS011;63234;37.558;127.058;2023-07-28T11:19:11;4.15;;;2.67;;
74715;SDS011;63234;37.558;127.058;2023-07-28T11:21:42;6.07;;;3.35;;
74715;SDS011;63234;37.558;127.058;2023-07-28T11:24:08;5.78;;;3.35;;
74715;SDS011;63234;37.558;127.058;2023-07-28T11:26:43;7.10;;;3.20;;
74715;SDS011;63234;37.558;127.058;2023-07-28T11:29:11;5.13;;;3.13;;
74715;SDS011;63234;37.558;127.058;2023-07-28T11:31:37;7.28;;;3.88;;
74715;SDS011;63234;37.558;127.058;2023-07-28T11:34:12;6.68;;;2.97;;
74715;SDS011;63234;37.558;127.058;2023-07-28T11:36:41;7.40;;;3.00;;
74715;SDS011;63234;37.558;127.058;2023-07-28T11:39:07;4.40;;;3.00;;
74715;SDS011;63234;37.558;127.058;2023-07-28T11:41:35;4.80;;;2.83;;
74715;SDS011;63234;37.558;127.058;2023-07-28T11:44:02;6.50;;;3.35;;
74715;SDS011;63234;37.558;127.058;2023-07-28T11:46:46;6.72;;;3.20;;
74715;SDS011;63234;37.558;127.058;2023-07-28T11:49:15;4.00;;;2.70;;
74715;SDS011;63234;37.558;127.058;2023-07-28T11:51:44;6.75;;;3.42;;
74715;SDS011;63234;37.558;127.058;2023-07-28T11:54:14;4.90;;;3.42;;
74715;SDS011;63234;37.558;127.058;2023-07-28T11:56:44;6.30;;;3.63;;
74715;SDS011;63234;37.558;127.058;2023-07-28T11:59:11;6.50;;;3.00;;
74715;SDS011;63234;37.558;127.058;2023-07-28T12:01:58;5.60;;;3.03;;
74715;SDS011;63234;37.558;127.058;2023-07-28T12:04:29;7.85;;;2.90;;
74715;SDS011;63234;37.558;127.058;2023-07-28T12:07:00;8.68;;;3.10;;
74715;SDS011;63234;37.558;127.058;2023-07-28T12:09:28;3.63;;;2.47;;
74715;SDS011;63234;37.558;127.058;2023-07-28T12:11:54;5.55;;;3.13;;
74715;SDS011;63234;37.558;127.058;2023-07-28T12:14:42;5.80;;;3.03;;
74715;SDS011;63234;37.558;127.058;2023-07-28T12:17:21;5.93;;;2.83;;
74715;SDS011;63234;37.558;127.058;2023-07-28T12:20:21;4.15;;;2.78;;
74715;SDS011;63234;37.558;127.058;2023-07-28T12:22:40;5.43;;;2.92;;
74715;SDS011;63234;37.558;127.058;2023-07-28T12:25:07;4.90;;;3.17;;
74715;SDS011;63234;37.558;127.058;2023-07-28T12:27:34;5.63;;;3.03;;
74715;SDS011;63234;37.558;127.058;2023-07-28T12:30:01;4.72;;;2.72;;
74715;SDS011;63234;37.558;127.058;2023-07-28T12:32:28;5.07;;;2.75;;
74715;SDS011;63234;37.558;127.058;2023-07-28T12:34:54;4.28;;;2.92;;
74715;SDS011;63234;37.558;127.058;2023-07-28T12:37:20;6.15;;;2.95;;
74715;SDS011;63234;37.558;127.058;2023-07-28T12:39:46;4.20;;;2.53;;
74715;SDS011;63234;37.558;127.058;2023-07-28T12:42:30;5.60;;;2.42;;
74715;SDS011;63234;37.558;127.058;2023-07-28T12:44:56;5.38;;;3.00;;
74715;SDS011;63234;37.558;127.058;2023-07-28T12:47:22;4.18;;;2.78;;
74715;SDS011;63234;37.558;127.058;2023-07-28T12:49:48;5.03;;;2.65;;
74715;SDS011;63234;37.558;127.058;2023-07-28T12:52:13;4.40;;;2.88;;
74715;SDS011;63234;37.558;127.058;2023-07-28T12:54:40;4.32;;;2.55;;
74715;SDS011;63234;37.558;127.058;2023-07-28T12:57:07;4.88;;;2.63;;
74715;SDS011;63234;37.558;127.058;2023-07-28T12:59:35;5.35;;;3.00;;
74715;SDS011;63234;37.558;127.058;2023-07-28T13:02:02;7.00;;;2.88;;
74715;SDS011;63234;37.558;127.058;2023-07-28T13:04:28;4.90;;;3.28;;
74715;SDS011;63234;37.558;127.058;2023-07-28T13:06:53;5.03;;;3.05;;
74715;SDS011;63234;37.558;127.058;2023-07-28T13:09:20;6.72;;;3.10;;
74715;SDS011;63234;37.558;127.058;2023-07-28T13:11:45;6.07;;;3.22;;
74715;SDS011;63234;37.558;127.058;2023-07-28T13:14:11;4.15;;;2.47;;
74715;SDS011;63234;37.558;127.058;2023-07-28T13:16:37;6.28;;;2.85;;
74715;SDS011;63234;37.558;127.058;2023-07-28T13:19:03;4.93;;;3.10;;
74715;SDS011;63234;37.558;127.058;2023-07-28T13:21:30;7.50;;;3.22;;
74715;SDS011;63234;37.558;127.058;2023-07-28T13:23:56;5.18;;;2.42;;
74715;SDS011;63234;37.558;127.058;2023-07-28T13:26:22;5.45;;;3.20;;
74715;SDS011;63234;37.558;127.058;2023-07-28T13:28:48;5.20;;;2.90;;
74715;SDS011;63234;37.558;127.058;2023-07-28T13:31:16;8.05;;;3.30;;
74715;SDS011;63234;37.558;127.058;2023-07-28T13:33:43;3.78;;;2.72;;
74715;SDS011;63234;37.558;127.058;2023-07-28T13:36:09;8.80;;;5.38;;
74715;SDS011;63234;37.558;127.058;2023-07-28T13:38:36;9.50;;;3.85;;
74715;SDS011;63234;37.558;127.058;2023-07-28T13:41:03;4.65;;;3.20;;
74715;SDS011;63234;37.558;127.058;2023-07-28T13:43:31;5.70;;;3.40;;
74715;SDS011;63234;37.558;127.058;2023-07-28T13:45:58;6.80;;;4.28;;
74715;SDS011;63234;37.558;127.058;2023-07-28T13:48:24;5.90;;;3.53;;
74715;SDS011;63234;37.558;127.058;2023-07-28T13:50:49;5.95;;;3.72;;
74715;SDS011;63234;37.558;127.058;2023-07-28T13:53:15;5.10;;;3.13;;
74715;SDS011;63234;37.558;127.058;2023-07-28T13:55:41;4.78;;;3.38;;
74715;SDS011;63234;37.558;127.058;2023-07-28T14:01:28;5.65;;;3.83;;
74715;SDS011;63234;37.558;127.058;2023-07-28T14:03:54;9.00;;;4.10;;
74715;SDS011;63234;37.558;127.058;2023-07-28T14:06:20;6.53;;;4.07;;
74715;SDS011;63234;37.558;127.058;2023-07-28T14:08:46;6.28;;;2.92;;
74715;SDS011;63234;37.558;127.058;2023-07-28T14:11:12;4.88;;;3.10;;
74715;SDS011;63234;37.558;127.058;2023-07-28T14:13:38;7.07;;;3.38;;
74715;SDS011;63234;37.558;127.058;2023-07-28T14:16:04;4.75;;;2.83;;
74715;SDS011;63234;37.558;127.058;2023-07-28T14:18:30;5.40;;;3.30;;
74715;SDS011;63234;37.558;127.058;2023-07-28T14:20:56;6.05;;;3.28;;
74715;SDS011;63234;37.558;127.058;2023-07-28T14:23:23;7.13;;;3.42;;
74715;SDS011;63234;37.558;127.058;2023-07-28T14:25:50;6.38;;;3.70;;
74715;SDS011;63234;37.558;127.058;2023-07-28T14:28:17;8.32;;;3.60;;
74715;SDS011;63234;37.558;127.058;2023-07-28T14:30:43;6.65;;;3.60;;
74715;SDS011;63234;37.558;127.058;2023-07-28T14:33:14;5.55;;;3.72;;
74715;SDS011;63234;37.558;127.058;2023-07-28T14:35:41;8.38;;;4.10;;
74715;SDS011;63234;37.558;127.058;2023-07-28T14:38:08;6.60;;;3.63;;
74715;SDS011;63234;37.558;127.058;2023-07-28T14:40:35;4.65;;;3.15;;